sensor_id;sensor_type;location;lat;lon;timestamp;P1;durP1;ratioP1;P2;durP2;ratioP2
54263;SDS011;40178;53.042;6.406;2023-05-07T00:01:53;21.38;;;13.23;;
54263;SDS011;40178;53.042;6.406;2023-05-07T00:04:19;29.27;;;13.52;;
54263;SDS011;40178;53.042;6.406;2023-05-07T00:06:45;19.63;;;13.40;;
54263;SDS011;40178;53.042;6.406;2023-05-07T00:09:11;18.88;;;12.85;;
54263;SDS011;40178;53.042;6.406;2023-05-07T00:11:36;17.17;;;12.32;;
54263;SDS011;40178;53.042;6.406;2023-05-07T00:14:02;17.75;;;12.68;;
54263;SDS011;40178;53.042;6.406;2023-05-07T00:16:27;21.50;;;13.40;;
54263;SDS011;40178;53.042;6.406;2023-05-07T00:18:53;18.88;;;13.02;;
54263;SDS011;40178;53.042;6.406;2023-05-07T00:21:19;20.10;;;13.07;;
54263;SDS011;40178;53.042;6.406;2023-05-07T00:23:44;19.25;;;13.40;;
54263;SDS011;40178;53.042;6.406;2023-05-07T00:26:10;20.55;;;13.88;;
54263;SDS011;40178;53.042;6.406;2023-05-07T00:28:35;19.02;;;13.63;;
54263;SDS011;40178;53.042;6.406;2023-05-07T00:31:01;20.55;;;14.82;;
54263;SDS011;40178;53.042;6.406;2023-05-07T00:33:27;18.58;;;13.05;;
54263;SDS011;40178;53.042;6.406;2023-05-07T00:35:52;24.60;;;15.02;;
54263;SDS011;40178;53.042;6.406;2023-05-07T00:38:19;19.92;;;14.73;;
54263;SDS011;40178;53.042;6.406;2023-05-07T00:40:45;24.35;;;15.65;;
54263;SDS011;40178;53.042;6.406;2023-05-07T00:43:11;23.77;;;15.88;;
54263;SDS011;40178;53.042;6.406;2023-05-07T00:45:37;23.92;;;15.80;;
54263;SDS011;40178;53.042;6.406;2023-05-07T00:48:03;26.38;;;16.85;;
54263;SDS011;40178;53.042;6.406;2023-05-07T00:50:29;20.77;;;15.32;;
54263;SDS011;40178;53.042;6.406;2023-05-07T00:52:55;24.40;;;16.45;;
54263;SDS011;40178;53.042;6.406;2023-05-07T00:55:22;22.63;;;15.73;;
54263;SDS011;40178;53.042;6.406;2023-05-07T00:57:48;22.85;;;16.58;;
54263;SDS011;40178;53.042;6.406;2023-05-07T01:00:15;25.27;;;15.43;;
54263;SDS011;40178;53.042;6.406;2023-05-07T01:02:41;24.58;;;16.45;;
54263;SDS011;40178;53.042;6.406;2023-05-07T01:05:11;24.65;;;15.98;;
54263;SDS011;40178;53.042;6.406;2023-05-07T01:07:41;25.90;;;17.08;;
54263;SDS011;40178;53.042;6.406;2023-05-07T01:10:07;22.42;;;15.57;;
54263;SDS011;40178;53.042;6.406;2023-05-07T01:12:35;23.10;;;16.48;;
54263;SDS011;40178;53.042;6.406;2023-05-07T01:15:02;25.33;;;16.80;;
54263;SDS011;40178;53.042;6.406;2023-05-07T01:17:29;24.60;;;17.02;;
54263;SDS011;40178;53.042;6.406;2023-05-07T01:19:57;25.85;;;16.73;;
54263;SDS011;40178;53.042;6.406;2023-05-07T01:22:30;23.52;;;16.58;;
54263;SDS011;40178;53.042;6.406;2023-05-07T01:24:57;24.08;;;17.30;;
54263;SDS011;40178;53.042;6.406;2023-05-07T01:27:24;25.30;;;17.42;;
54263;SDS011;40178;53.042;6.406;2023-05-07T01:29:50;26.75;;;16.98;;
54263;SDS011;40178;53.042;6.406;2023-05-07T01:32:16;24.42;;;17.40;;
54263;SDS011;40178;53.042;6.406;2023-05-07T01:34:46;27.73;;;18.02;;
54263;SDS011;40178;53.042;6.406;2023-05-07T01:37:14;26.92;;;17.85;;
54263;SDS011;40178;53.042;6.406;2023-05-07T01:39:40;25.63;;;18.45;;
54263;SDS011;40178;53.042;6.406;2023-05-07T01:42:07;29.75;;;18.58;;
54263;SDS011;40178;53.042;6.406;2023-05-07T01:44:33;26.60;;;18.13;;
54263;SDS011;40178;53.042;6.406;2023-05-07T01:46:58;25.88;;;18.08;;
54263;SDS011;40178;53.042;6.406;2023-05-07T01:49:24;26.52;;;18.38;;
54263;SDS011;40178;53.042;6.406;2023-05-07T01:51:50;26.98;;;18.55;;
54263;SDS011;40178;53.042;6.406;2023-05-07T01:54:16;28.27;;;18.05;;
54263;SDS011;40178;53.042;6.406;2023-05-07T01:56:42;26.45;;;17.13;;
54263;SDS011;40178;53.042;6.406;2023-05-07T01:59:07;28.10;;;19.38;;
54263;SDS011;40178;53.042;6.406;2023-05-07T02:01:33;23.98;;;16.65;;
54263;SDS011;40178;53.042;6.406;2023-05-07T02:03:58;27.33;;;19.25;;
54263;SDS011;40178;53.042;6.406;2023-05-07T02:06:24;26.38;;;18.42;;
54263;SDS011;40178;53.042;6.406;2023-05-07T02:08:50;27.67;;;19.15;;
54263;SDS011;40178;53.042;6.406;2023-05-07T02:11:15;27.70;;;18.95;;
54263;SDS011;40178;53.042;6.406;2023-05-07T02:13:41;27.30;;;19.75;;
54263;SDS011;40178;53.042;6.406;2023-05-07T02:16:06;25.65;;;18.05;;
54263;SDS011;40178;53.042;6.406;2023-05-07T02:18:32;29.45;;;18.92;;
54263;SDS011;40178;53.042;6.406;2023-05-07T02:20:58;27.27;;;18.58;;
54263;SDS011;40178;53.042;6.406;2023-05-07T02:23:23;27.80;;;19.63;;
54263;SDS011;40178;53.042;6.406;2023-05-07T02:25:49;30.00;;;19.17;;
54263;SDS011;40178;53.042;6.406;2023-05-07T02:28:16;28.00;;;19.23;;
54263;SDS011;40178;53.042;6.406;2023-05-07T02:30:41;27.27;;;19.38;;
54263;SDS011;40178;53.042;6.406;2023-05-07T02:33:07;28.38;;;19.83;;
54263;SDS011;40178;53.042;6.406;2023-05-07T02:35:33;28.67;;;19.55;;
54263;SDS011;40178;53.042;6.406;2023-05-07T02:37:59;31.45;;;19.38;;
54263;SDS011;40178;53.042;6.406;2023-05-07T02:40:27;28.77;;;19.38;;
54263;SDS011;40178;53.042;6.406;2023-05-07T02:42:53;31.35;;;20.13;;
54263;SDS011;40178;53.042;6.406;2023-05-07T02:45:18;30.73;;;20.30;;
54263;SDS011;40178;53.042;6.406;2023-05-07T02:47:44;27.63;;;19.45;;
54263;SDS011;40178;53.042;6.406;2023-05-07T02:50:10;28.17;;;20.05;;
54263;SDS011;40178;53.042;6.406;2023-05-07T02:52:35;29.35;;;20.98;;
54263;SDS011;40178;53.042;6.406;2023-05-07T02:55:01;28.83;;;19.83;;
54263;SDS011;40178;53.042;6.406;2023-05-07T02:57:27;34.90;;;20.77;;
54263;SDS011;40178;53.042;6.406;2023-05-07T02:59:53;33.10;;;21.58;;
54263;SDS011;40178;53.042;6.406;2023-05-07T03:02:18;34.20;;;21.77;;
54263;SDS011;40178;53.042;6.406;2023-05-07T03:04:45;36.40;;;22.23;;
54263;SDS011;40178;53.042;6.406;2023-05-07T03:07:10;35.08;;;21.90;;
54263;SDS011;40178;53.042;6.406;2023-05-07T03:09:36;30.58;;;21.08;;
54263;SDS011;40178;53.042;6.406;2023-05-07T03:12:01;32.75;;;21.35;;
54263;SDS011;40178;53.042;6.406;2023-05-07T03:14:27;35.15;;;22.00;;
54263;SDS011;40178;53.042;6.406;2023-05-07T03:16:53;33.88;;;22.60;;
54263;SDS011;40178;53.042;6.406;2023-05-07T03:19:18;34.42;;;22.63;;
54263;SDS011;40178;53.042;6.406;2023-05-07T03:21:44;32.60;;;21.45;;
54263;SDS011;40178;53.042;6.406;2023-05-07T03:24:09;34.63;;;23.83;;
54263;SDS011;40178;53.042;6.406;2023-05-07T03:26:35;35.75;;;23.60;;
54263;SDS011;40178;53.042;6.406;2023-05-07T03:29:01;35.60;;;22.70;;
54263;SDS011;40178;53.042;6.406;2023-05-07T03:31:26;34.33;;;22.83;;
54263;SDS011;40178;53.042;6.406;2023-05-07T03:33:53;32.60;;;22.88;;
54263;SDS011;40178;53.042;6.406;2023-05-07T03:36:20;38.22;;;24.17;;
54263;SDS011;40178;53.042;6.406;2023-05-07T03:38:46;38.58;;;23.63;;
54263;SDS011;40178;53.042;6.406;2023-05-07T03:41:12;37.65;;;25.38;;
54263;SDS011;40178;53.042;6.406;2023-05-07T03:43:38;38.28;;;24.23;;
54263;SDS011;40178;53.042;6.406;2023-05-07T03:46:04;36.85;;;22.80;;
54263;SDS011;40178;53.042;6.406;2023-05-07T03:48:29;36.58;;;23.45;;
54263;SDS011;40178;53.042;6.406;2023-05-07T03:50:58;38.47;;;24.25;;
54263;SDS011;40178;53.042;6.406;2023-05-07T03:53:24;37.95;;;23.92;;
54263;SDS011;40178;53.042;6.406;2023-05-07T03:55:50;35.85;;;22.77;;
54263;SDS011;40178;53.042;6.406;2023-05-07T03:58:15;36.35;;;23.20;;
54263;SDS011;40178;53.042;6.406;2023-05-07T04:00:41;42.42;;;25.42;;
54263;SDS011;40178;53.042;6.406;2023-05-07T04:03:07;38.72;;;25.67;;
54263;SDS011;40178;53.042;6.406;2023-05-07T04:05:33;41.30;;;23.52;;
54263;SDS011;40178;53.042;6.406;2023-05-07T04:07:58;41.90;;;24.27;;
54263;SDS011;40178;53.042;6.406;2023-05-07T04:10:24;41.05;;;25.13;;
54263;SDS011;40178;53.042;6.406;2023-05-07T04:12:50;43.55;;;25.45;;
54263;SDS011;40178;53.042;6.406;2023-05-07T04:15:16;37.88;;;25.27;;
54263;SDS011;40178;53.042;6.406;2023-05-07T04:17:42;42.00;;;26.00;;
54263;SDS011;40178;53.042;6.406;2023-05-07T04:20:14;40.53;;;24.92;;
54263;SDS011;40178;53.042;6.406;2023-05-07T04:22:41;42.47;;;24.75;;
54263;SDS011;40178;53.042;6.406;2023-05-07T04:25:07;46.47;;;26.83;;
54263;SDS011;40178;53.042;6.406;2023-05-07T04:27:34;41.33;;;24.33;;
54263;SDS011;40178;53.042;6.406;2023-05-07T04:30:00;38.83;;;24.60;;
54263;SDS011;40178;53.042;6.406;2023-05-07T04:32:27;39.17;;;24.35;;
54263;SDS011;40178;53.042;6.406;2023-05-07T04:34:54;40.10;;;25.20;;
54263;SDS011;40178;53.042;6.406;2023-05-07T04:37:20;43.33;;;25.45;;
54263;SDS011;40178;53.042;6.406;2023-05-07T04:39:46;39.17;;;25.77;;
54263;SDS011;40178;53.042;6.406;2023-05-07T04:42:15;49.78;;;27.98;;
54263;SDS011;40178;53.042;6.406;2023-05-07T04:44:42;43.00;;;24.98;;
54263;SDS011;40178;53.042;6.406;2023-05-07T04:47:09;39.83;;;24.52;;
54263;SDS011;40178;53.042;6.406;2023-05-07T04:49:35;45.78;;;26.48;;
54263;SDS011;40178;53.042;6.406;2023-05-07T04:52:01;40.00;;;25.00;;
54263;SDS011;40178;53.042;6.406;2023-05-07T04:54:26;42.45;;;26.00;;
54263;SDS011;40178;53.042;6.406;2023-05-07T04:56:52;44.70;;;26.70;;
54263;SDS011;40178;53.042;6.406;2023-05-07T04:59:18;35.38;;;23.60;;
54263;SDS011;40178;53.042;6.406;2023-05-07T05:01:43;37.55;;;23.80;;
54263;SDS011;40178;53.042;6.406;2023-05-07T05:04:09;41.47;;;25.40;;
54263;SDS011;40178;53.042;6.406;2023-05-07T05:06:35;39.00;;;24.25;;
54263;SDS011;40178;53.042;6.406;2023-05-07T05:09:00;40.08;;;25.20;;
54263;SDS011;40178;53.042;6.406;2023-05-07T05:11:26;38.88;;;24.58;;
54263;SDS011;40178;53.042;6.406;2023-05-07T05:13:52;37.55;;;23.67;;
54263;SDS011;40178;53.042;6.406;2023-05-07T05:16:17;35.40;;;22.92;;
54263;SDS011;40178;53.042;6.406;2023-05-07T05:18:43;38.97;;;24.65;;
54263;SDS011;40178;53.042;6.406;2023-05-07T05:21:08;35.20;;;22.85;;
54263;SDS011;40178;53.042;6.406;2023-05-07T05:23:34;34.50;;;21.58;;
54263;SDS011;40178;53.042;6.406;2023-05-07T05:26:00;37.70;;;24.35;;
54263;SDS011;40178;53.042;6.406;2023-05-07T05:28:25;33.00;;;21.50;;
54263;SDS011;40178;53.042;6.406;2023-05-07T05:30:52;37.30;;;23.67;;
54263;SDS011;40178;53.042;6.406;2023-05-07T05:33:18;35.25;;;22.42;;
54263;SDS011;40178;53.042;6.406;2023-05-07T05:35:43;36.75;;;22.55;;
54263;SDS011;40178;53.042;6.406;2023-05-07T05:38:09;31.15;;;22.05;;
54263;SDS011;40178;53.042;6.406;2023-05-07T05:40:35;34.88;;;22.15;;
54263;SDS011;40178;53.042;6.406;2023-05-07T05:43:01;34.45;;;23.33;;
54263;SDS011;40178;53.042;6.406;2023-05-07T05:45:26;33.13;;;23.17;;
54263;SDS011;40178;53.042;6.406;2023-05-07T05:47:52;31.13;;;20.95;;
54263;SDS011;40178;53.042;6.406;2023-05-07T05:50:17;34.03;;;21.33;;
54263;SDS011;40178;53.042;6.406;2023-05-07T05:52:43;33.22;;;20.55;;
54263;SDS011;40178;53.042;6.406;2023-05-07T05:55:09;32.90;;;22.13;;
54263;SDS011;40178;53.042;6.406;2023-05-07T05:57:35;31.85;;;21.42;;
54263;SDS011;40178;53.042;6.406;2023-05-07T06:00:01;32.72;;;21.00;;
54263;SDS011;40178;53.042;6.406;2023-05-07T06:02:27;30.35;;;19.73;;
54263;SDS011;40178;53.042;6.406;2023-05-07T06:04:53;32.17;;;20.55;;
54263;SDS011;40178;53.042;6.406;2023-05-07T06:07:19;31.60;;;19.25;;
54263;SDS011;40178;53.042;6.406;2023-05-07T06:09:44;29.42;;;19.45;;
54263;SDS011;40178;53.042;6.406;2023-05-07T06:12:10;34.13;;;20.63;;
54263;SDS011;40178;53.042;6.406;2023-05-07T06:14:36;28.02;;;19.48;;
54263;SDS011;40178;53.042;6.406;2023-05-07T06:17:02;32.85;;;20.77;;
54263;SDS011;40178;53.042;6.406;2023-05-07T06:19:27;27.52;;;19.38;;
54263;SDS011;40178;53.042;6.406;2023-05-07T06:21:53;29.17;;;18.75;;
54263;SDS011;40178;53.042;6.406;2023-05-07T06:24:21;28.13;;;18.70;;
54263;SDS011;40178;53.042;6.406;2023-05-07T06:26:47;29.10;;;19.15;;
54263;SDS011;40178;53.042;6.406;2023-05-07T06:29:13;30.70;;;19.63;;
54263;SDS011;40178;53.042;6.406;2023-05-07T06:31:38;29.90;;;18.92;;
54263;SDS011;40178;53.042;6.406;2023-05-07T06:34:04;28.98;;;19.30;;
54263;SDS011;40178;53.042;6.406;2023-05-07T06:36:30;28.30;;;18.92;;
54263;SDS011;40178;53.042;6.406;2023-05-07T06:38:56;27.60;;;19.33;;
54263;SDS011;40178;53.042;6.406;2023-05-07T06:41:21;26.35;;;19.08;;
54263;SDS011;40178;53.042;6.406;2023-05-07T06:43:47;26.15;;;19.05;;
54263;SDS011;40178;53.042;6.406;2023-05-07T06:46:12;28.60;;;19.30;;
54263;SDS011;40178;53.042;6.406;2023-05-07T06:48:38;26.33;;;18.05;;
54263;SDS011;40178;53.042;6.406;2023-05-07T06:51:04;28.90;;;18.58;;
54263;SDS011;40178;53.042;6.406;2023-05-07T06:53:29;25.80;;;17.45;;
54263;SDS011;40178;53.042;6.406;2023-05-07T06:55:55;27.98;;;19.35;;
54263;SDS011;40178;53.042;6.406;2023-05-07T06:58:22;27.23;;;18.52;;
54263;SDS011;40178;53.042;6.406;2023-05-07T07:00:47;27.75;;;19.00;;
54263;SDS011;40178;53.042;6.406;2023-05-07T07:03:13;27.58;;;17.50;;
54263;SDS011;40178;53.042;6.406;2023-05-07T07:05:40;27.67;;;18.90;;
54263;SDS011;40178;53.042;6.406;2023-05-07T07:08:06;28.30;;;18.73;;
54263;SDS011;40178;53.042;6.406;2023-05-07T07:10:32;26.83;;;18.27;;
54263;SDS011;40178;53.042;6.406;2023-05-07T07:12:57;27.00;;;17.67;;
54263;SDS011;40178;53.042;6.406;2023-05-07T07:15:23;28.65;;;18.13;;
54263;SDS011;40178;53.042;6.406;2023-05-07T07:17:50;24.75;;;17.88;;
54263;SDS011;40178;53.042;6.406;2023-05-07T07:20:16;25.73;;;18.05;;
54263;SDS011;40178;53.042;6.406;2023-05-07T07:22:41;26.00;;;18.00;;
54263;SDS011;40178;53.042;6.406;2023-05-07T07:25:07;25.92;;;17.98;;
54263;SDS011;40178;53.042;6.406;2023-05-07T07:27:33;30.45;;;18.98;;
54263;SDS011;40178;53.042;6.406;2023-05-07T07:29:59;26.95;;;18.83;;
54263;SDS011;40178;53.042;6.406;2023-05-07T07:32:25;26.23;;;18.27;;
54263;SDS011;40178;53.042;6.406;2023-05-07T07:34:51;25.90;;;17.60;;
54263;SDS011;40178;53.042;6.406;2023-05-07T07:37:16;23.67;;;17.23;;
54263;SDS011;40178;53.042;6.406;2023-05-07T07:39:42;26.17;;;17.63;;
54263;SDS011;40178;53.042;6.406;2023-05-07T07:42:08;28.60;;;18.15;;
54263;SDS011;40178;53.042;6.406;2023-05-07T07:44:33;26.63;;;18.63;;
54263;SDS011;40178;53.042;6.406;2023-05-07T07:46:59;27.60;;;19.00;;
54263;SDS011;40178;53.042;6.406;2023-05-07T07:49:25;26.30;;;18.25;;
54263;SDS011;40178;53.042;6.406;2023-05-07T07:51:51;27.17;;;18.85;;
54263;SDS011;40178;53.042;6.406;2023-05-07T07:54:17;28.20;;;19.75;;
54263;SDS011;40178;53.042;6.406;2023-05-07T07:56:43;27.05;;;18.20;;
54263;SDS011;40178;53.042;6.406;2023-05-07T07:59:08;28.92;;;18.65;;
54263;SDS011;40178;53.042;6.406;2023-05-07T08:01:34;28.50;;;17.95;;
54263;SDS011;40178;53.042;6.406;2023-05-07T08:04:00;26.38;;;18.40;;
54263;SDS011;40178;53.042;6.406;2023-05-07T08:06:28;25.90;;;17.80;;
54263;SDS011;40178;53.042;6.406;2023-05-07T08:08:53;27.98;;;18.40;;
54263;SDS011;40178;53.042;6.406;2023-05-07T08:11:20;26.15;;;18.02;;
54263;SDS011;40178;53.042;6.406;2023-05-07T08:13:46;27.35;;;19.45;;
54263;SDS011;40178;53.042;6.406;2023-05-07T08:16:12;27.52;;;18.13;;
54263;SDS011;40178;53.042;6.406;2023-05-07T08:18:38;27.33;;;18.65;;
54263;SDS011;40178;53.042;6.406;2023-05-07T08:21:03;27.35;;;18.77;;
54263;SDS011;40178;53.042;6.406;2023-05-07T08:23:29;25.65;;;18.17;;
54263;SDS011;40178;53.042;6.406;2023-05-07T08:25:55;26.60;;;18.75;;
54263;SDS011;40178;53.042;6.406;2023-05-07T08:28:21;26.02;;;18.50;;
54263;SDS011;40178;53.042;6.406;2023-05-07T08:30:46;25.40;;;18.48;;
54263;SDS011;40178;53.042;6.406;2023-05-07T08:33:12;29.42;;;18.73;;
54263;SDS011;40178;53.042;6.406;2023-05-07T08:35:38;28.73;;;19.33;;
54263;SDS011;40178;53.042;6.406;2023-05-07T08:38:03;29.90;;;18.95;;
54263;SDS011;40178;53.042;6.406;2023-05-07T08:40:29;28.55;;;17.85;;
54263;SDS011;40178;53.042;6.406;2023-05-07T08:43:01;27.17;;;18.25;;
54263;SDS011;40178;53.042;6.406;2023-05-07T08:45:28;26.05;;;18.13;;
54263;SDS011;40178;53.042;6.406;2023-05-07T08:47:58;25.13;;;17.38;;
54263;SDS011;40178;53.042;6.406;2023-05-07T08:50:24;27.02;;;17.75;;
54263;SDS011;40178;53.042;6.406;2023-05-07T08:52:50;26.42;;;18.27;;
54263;SDS011;40178;53.042;6.406;2023-05-07T08:55:16;28.25;;;19.10;;
54263;SDS011;40178;53.042;6.406;2023-05-07T08:57:43;24.98;;;16.63;;
54263;SDS011;40178;53.042;6.406;2023-05-07T09:00:08;26.73;;;16.20;;
54263;SDS011;40178;53.042;6.406;2023-05-07T09:02:35;28.75;;;17.42;;
54263;SDS011;40178;53.042;6.406;2023-05-07T09:05:01;25.73;;;18.02;;
54263;SDS011;40178;53.042;6.406;2023-05-07T09:07:27;25.10;;;17.52;;
54263;SDS011;40178;53.042;6.406;2023-05-07T09:09:53;23.08;;;16.45;;
54263;SDS011;40178;53.042;6.406;2023-05-07T09:12:23;24.42;;;16.95;;
54263;SDS011;40178;53.042;6.406;2023-05-07T09:14:49;25.55;;;17.98;;
54263;SDS011;40178;53.042;6.406;2023-05-07T09:17:15;24.50;;;16.70;;
54263;SDS011;40178;53.042;6.406;2023-05-07T09:19:42;26.60;;;17.23;;
54263;SDS011;40178;53.042;6.406;2023-05-07T09:22:11;26.63;;;18.02;;
54263;SDS011;40178;53.042;6.406;2023-05-07T09:24:37;25.48;;;17.98;;
54263;SDS011;40178;53.042;6.406;2023-05-07T09:27:04;24.67;;;17.67;;
54263;SDS011;40178;53.042;6.406;2023-05-07T09:29:30;24.80;;;17.52;;
54263;SDS011;40178;53.042;6.406;2023-05-07T09:32:07;26.88;;;18.13;;
54263;SDS011;40178;53.042;6.406;2023-05-07T09:34:33;27.80;;;18.13;;
54263;SDS011;40178;53.042;6.406;2023-05-07T09:37:01;23.10;;;17.65;;
54263;SDS011;40178;53.042;6.406;2023-05-07T09:39:41;24.00;;;16.35;;
54263;SDS011;40178;53.042;6.406;2023-05-07T09:42:08;25.75;;;17.42;;
54263;SDS011;40178;53.042;6.406;2023-05-07T09:44:34;22.42;;;16.30;;
54263;SDS011;40178;53.042;6.406;2023-05-07T09:47:00;22.15;;;16.23;;
54263;SDS011;40178;53.042;6.406;2023-05-07T09:49:29;22.05;;;16.60;;
54263;SDS011;40178;53.042;6.406;2023-05-07T09:51:55;22.58;;;16.00;;
54263;SDS011;40178;53.042;6.406;2023-05-07T09:54:22;23.35;;;16.35;;
54263;SDS011;40178;53.042;6.406;2023-05-07T09:56:48;25.73;;;16.08;;
54263;SDS011;40178;53.042;6.406;2023-05-07T09:59:14;22.50;;;16.52;;
54263;SDS011;40178;53.042;6.406;2023-05-07T10:01:41;22.80;;;17.30;;
54263;SDS011;40178;53.042;6.406;2023-05-07T10:04:08;26.02;;;17.55;;
54263;SDS011;40178;53.042;6.406;2023-05-07T10:06:35;22.65;;;15.82;;
54263;SDS011;40178;53.042;6.406;2023-05-07T10:09:02;20.45;;;15.15;;
54263;SDS011;40178;53.042;6.406;2023-05-07T10:11:30;22.67;;;16.48;;
54263;SDS011;40178;53.042;6.406;2023-05-07T10:14:00;22.05;;;15.13;;
54263;SDS011;40178;53.042;6.406;2023-05-07T10:16:27;22.67;;;15.50;;
54263;SDS011;40178;53.042;6.406;2023-05-07T10:18:57;20.85;;;15.07;;
54263;SDS011;40178;53.042;6.406;2023-05-07T10:21:24;21.73;;;15.75;;
54263;SDS011;40178;53.042;6.406;2023-05-07T10:24:26;20.55;;;14.77;;
54263;SDS011;40178;53.042;6.406;2023-05-07T10:26:51;20.08;;;14.68;;
54263;SDS011;40178;53.042;6.406;2023-05-07T10:29:25;23.25;;;14.68;;
54263;SDS011;40178;53.042;6.406;2023-05-07T10:32:30;18.85;;;14.35;;
54263;SDS011;40178;53.042;6.406;2023-05-07T10:34:48;21.65;;;14.52;;
54263;SDS011;40178;53.042;6.406;2023-05-07T10:37:18;19.40;;;14.57;;
54263;SDS011;40178;53.042;6.406;2023-05-07T10:39:44;20.50;;;14.95;;
54263;SDS011;40178;53.042;6.406;2023-05-07T10:42:10;19.40;;;14.80;;
54263;SDS011;40178;53.042;6.406;2023-05-07T10:44:37;21.55;;;13.95;;
54263;SDS011;40178;53.042;6.406;2023-05-07T10:47:06;20.48;;;14.95;;
54263;SDS011;40178;53.042;6.406;2023-05-07T10:49:34;20.20;;;13.80;;
54263;SDS011;40178;53.042;6.406;2023-05-07T10:52:18;19.23;;;14.27;;
54263;SDS011;40178;53.042;6.406;2023-05-07T10:54:45;19.27;;;13.93;;
54263;SDS011;40178;53.042;6.406;2023-05-07T10:59:56;19.58;;;14.13;;
54263;SDS011;40178;53.042;6.406;2023-05-07T11:02:22;19.50;;;14.73;;
54263;SDS011;40178;53.042;6.406;2023-05-07T11:07:55;18.83;;;14.43;;
54263;SDS011;40178;53.042;6.406;2023-05-07T11:13:17;19.27;;;14.48;;
54263;SDS011;40178;53.042;6.406;2023-05-07T11:15:47;18.48;;;14.55;;
54263;SDS011;40178;53.042;6.406;2023-05-07T11:18:14;20.60;;;15.18;;
54263;SDS011;40178;53.042;6.406;2023-05-07T11:25:59;19.77;;;14.20;;
54263;SDS011;40178;53.042;6.406;2023-05-07T11:28:27;21.38;;;13.35;;
54263;SDS011;40178;53.042;6.406;2023-05-07T11:30:53;18.02;;;13.23;;
54263;SDS011;40178;53.042;6.406;2023-05-07T11:33:19;18.98;;;14.30;;
54263;SDS011;40178;53.042;6.406;2023-05-07T11:35:45;18.08;;;13.45;;
54263;SDS011;40178;53.042;6.406;2023-05-07T11:38:12;17.50;;;13.95;;
54263;SDS011;40178;53.042;6.406;2023-05-07T11:40:54;19.90;;;13.93;;
54263;SDS011;40178;53.042;6.406;2023-05-07T11:43:26;19.67;;;14.13;;
54263;SDS011;40178;53.042;6.406;2023-05-07T11:45:52;21.00;;;14.55;;
54263;SDS011;40178;53.042;6.406;2023-05-07T11:48:18;18.35;;;13.63;;
54263;SDS011;40178;53.042;6.406;2023-05-07T11:50:50;18.77;;;13.57;;
54263;SDS011;40178;53.042;6.406;2023-05-07T11:53:37;17.58;;;13.18;;
54263;SDS011;40178;53.042;6.406;2023-05-07T11:56:08;16.42;;;12.98;;
54263;SDS011;40178;53.042;6.406;2023-05-07T11:58:35;18.40;;;14.05;;
54263;SDS011;40178;53.042;6.406;2023-05-07T12:01:01;20.13;;;14.32;;
54263;SDS011;40178;53.042;6.406;2023-05-07T12:03:27;18.65;;;14.02;;
54263;SDS011;40178;53.042;6.406;2023-05-07T12:05:53;18.00;;;13.40;;
54263;SDS011;40178;53.042;6.406;2023-05-07T12:08:19;18.20;;;14.63;;
54263;SDS011;40178;53.042;6.406;2023-05-07T12:10:46;19.38;;;14.43;;
54263;SDS011;40178;53.042;6.406;2023-05-07T12:13:23;18.23;;;13.32;;
54263;SDS011;40178;53.042;6.406;2023-05-07T12:15:54;18.40;;;13.68;;
54263;SDS011;40178;53.042;6.406;2023-05-07T12:18:21;18.63;;;14.00;;
54263;SDS011;40178;53.042;6.406;2023-05-07T12:20:47;19.88;;;14.40;;
54263;SDS011;40178;53.042;6.406;2023-05-07T12:23:14;17.50;;;12.05;;
54263;SDS011;40178;53.042;6.406;2023-05-07T12:25:41;17.13;;;12.85;;
54263;SDS011;40178;53.042;6.406;2023-05-07T12:28:17;16.70;;;12.20;;
54263;SDS011;40178;53.042;6.406;2023-05-07T12:30:44;17.40;;;12.23;;
54263;SDS011;40178;53.042;6.406;2023-05-07T12:33:11;15.60;;;11.77;;
54263;SDS011;40178;53.042;6.406;2023-05-07T12:35:41;16.40;;;12.45;;
54263;SDS011;40178;53.042;6.406;2023-05-07T12:38:08;18.08;;;13.50;;
54263;SDS011;40178;53.042;6.406;2023-05-07T12:43:07;15.82;;;12.13;;
54263;SDS011;40178;53.042;6.406;2023-05-07T12:45:41;19.40;;;14.38;;
54263;SDS011;40178;53.042;6.406;2023-05-07T12:48:07;19.45;;;13.00;;
54263;SDS011;40178;53.042;6.406;2023-05-07T12:50:35;16.85;;;13.07;;
54263;SDS011;40178;53.042;6.406;2023-05-07T12:53:03;17.27;;;12.77;;
54263;SDS011;40178;53.042;6.406;2023-05-07T12:55:31;17.40;;;13.38;;
54263;SDS011;40178;53.042;6.406;2023-05-07T12:57:57;18.27;;;12.85;;
54263;SDS011;40178;53.042;6.406;2023-05-07T13:00:34;18.60;;;14.15;;
54263;SDS011;40178;53.042;6.406;2023-05-07T13:03:03;18.88;;;13.48;;
54263;SDS011;40178;53.042;6.406;2023-05-07T13:05:29;17.00;;;11.68;;
54263;SDS011;40178;53.042;6.406;2023-05-07T13:07:56;17.75;;;12.63;;
54263;SDS011;40178;53.042;6.406;2023-05-07T13:10:23;18.35;;;12.88;;
54263;SDS011;40178;53.042;6.406;2023-05-07T13:12:49;18.33;;;13.23;;
54263;SDS011;40178;53.042;6.406;2023-05-07T13:15:15;16.73;;;12.65;;
54263;SDS011;40178;53.042;6.406;2023-05-07T13:17:41;17.83;;;13.75;;
54263;SDS011;40178;53.042;6.406;2023-05-07T13:20:08;17.05;;;13.18;;
54263;SDS011;40178;53.042;6.406;2023-05-07T13:22:35;16.05;;;12.68;;
54263;SDS011;40178;53.042;6.406;2023-05-07T13:25:01;17.58;;;13.32;;
54263;SDS011;40178;53.042;6.406;2023-05-07T13:27:26;16.70;;;13.35;;
54263;SDS011;40178;53.042;6.406;2023-05-07T13:29:52;15.82;;;12.98;;
54263;SDS011;40178;53.042;6.406;2023-05-07T13:32:17;16.95;;;12.75;;
54263;SDS011;40178;53.042;6.406;2023-05-07T13:34:43;16.40;;;13.48;;
54263;SDS011;40178;53.042;6.406;2023-05-07T13:37:09;16.15;;;12.63;;
54263;SDS011;40178;53.042;6.406;2023-05-07T13:39:35;18.40;;;14.05;;
54263;SDS011;40178;53.042;6.406;2023-05-07T13:42:01;15.60;;;12.55;;
54263;SDS011;40178;53.042;6.406;2023-05-07T13:44:27;16.60;;;12.60;;
54263;SDS011;40178;53.042;6.406;2023-05-07T13:46:52;16.13;;;12.80;;
54263;SDS011;40178;53.042;6.406;2023-05-07T13:49:18;17.60;;;12.77;;
54263;SDS011;40178;53.042;6.406;2023-05-07T13:51:43;15.63;;;11.38;;
54263;SDS011;40178;53.042;6.406;2023-05-07T13:54:09;15.63;;;11.85;;
54263;SDS011;40178;53.042;6.406;2023-05-07T13:56:35;17.27;;;12.50;;
54263;SDS011;40178;53.042;6.406;2023-05-07T13:59:00;15.18;;;11.65;;
54263;SDS011;40178;53.042;6.406;2023-05-07T14:01:26;14.48;;;11.63;;
54263;SDS011;40178;53.042;6.406;2023-05-07T14:03:52;14.85;;;11.40;;
54263;SDS011;40178;53.042;6.406;2023-05-07T14:06:18;15.23;;;11.15;;
54263;SDS011;40178;53.042;6.406;2023-05-07T14:08:43;14.60;;;11.52;;
54263;SDS011;40178;53.042;6.406;2023-05-07T14:11:09;14.52;;;11.55;;
54263;SDS011;40178;53.042;6.406;2023-05-07T14:13:36;15.68;;;11.27;;
54263;SDS011;40178;53.042;6.406;2023-05-07T14:16:02;14.23;;;10.98;;
54263;SDS011;40178;53.042;6.406;2023-05-07T14:18:28;14.55;;;11.98;;
54263;SDS011;40178;53.042;6.406;2023-05-07T14:20:54;14.73;;;11.38;;
54263;SDS011;40178;53.042;6.406;2023-05-07T14:23:20;13.70;;;11.70;;
54263;SDS011;40178;53.042;6.406;2023-05-07T14:25:50;16.38;;;12.15;;
54263;SDS011;40178;53.042;6.406;2023-05-07T14:28:16;13.50;;;10.65;;
54263;SDS011;40178;53.042;6.406;2023-05-07T14:30:41;13.63;;;10.57;;
54263;SDS011;40178;53.042;6.406;2023-05-07T14:33:07;15.15;;;11.48;;
54263;SDS011;40178;53.042;6.406;2023-05-07T14:35:32;13.32;;;11.45;;